createdAt,value
2019-03-31T16:08:02.659Z,13.43
2019-03-31T16:10:33.117Z,17.27
2019-03-31T16:13:03.694Z,18.07
2019-03-31T16:15:34.338Z,14.03
2019-03-31T16:18:04.821Z,13.30
2019-03-31T16:20:35.586Z,12.30
2019-03-31T16:23:06.043Z,11.70
2019-03-31T16:25:38.923Z,13.40
2019-03-31T16:28:09.245Z,13.93
2019-03-31T16:30:39.838Z,12.70
2019-03-31T16:33:10.213Z,14.23
2019-03-31T16:35:40.728Z,13.23
2019-03-31T16:38:11.231Z,11.30
2019-03-31T16:40:41.743Z,12.60
2019-03-31T16:43:12.218Z,14.97
2019-03-31T16:45:42.734Z,13.70
2019-03-31T16:48:13.399Z,16.07
2019-03-31T16:50:43.939Z,16.93
2019-03-31T16:53:14.302Z,18.80
2019-03-31T16:55:44.717Z,24.73
2019-03-31T16:58:15.393Z,23.27
2019-03-31T17:00:46.017Z,20.40
2019-03-31T17:03:18.224Z,18.33
2019-03-31T17:05:46.768Z,17.47
2019-03-31T17:08:17.099Z,24.50
2019-03-31T17:10:47.717Z,16.17
2019-03-31T17:13:18.184Z,17.90
2019-03-31T17:15:48.679Z,17.77
2019-03-31T17:18:19.050Z,14.83
2019-03-31T17:20:52.225Z,11.47
2019-03-31T17:23:22.592Z,10.17
2019-03-31T17:25:53.083Z,13.37
2019-03-31T17:28:23.582Z,13.97
2019-03-31T17:30:53.966Z,17.53
2019-03-31T17:33:24.375Z,13.97
2019-03-31T17:35:54.875Z,14.80
2019-03-31T17:38:25.605Z,17.00
2019-03-31T17:40:56.424Z,31.60
2019-03-31T17:43:26.781Z,39.23
2019-03-31T17:45:57.299Z,17.03
2019-03-31T17:48:27.603Z,20.57
2019-03-31T17:50:58.010Z,19.00
2019-03-31T17:53:28.283Z,18.77
2019-03-31T17:55:58.673Z,14.63
2019-03-31T17:58:29.115Z,19.03
2019-03-31T18:01:01.388Z,18.17
2019-03-31T18:03:31.875Z,15.00
2019-03-31T18:06:02.267Z,16.00
2019-03-31T18:08:32.548Z,18.30
2019-03-31T18:11:03.027Z,18.10
2019-03-31T18:13:33.481Z,21.87
2019-03-31T18:16:03.169Z,14.30
2019-03-31T18:18:33.482Z,18.00
2019-03-31T18:21:04.019Z,17.13
2019-03-31T18:23:34.364Z,19.27
2019-03-31T18:26:04.774Z,20.90
2019-03-31T18:28:35.318Z,20.27
2019-03-31T18:31:05.908Z,26.20
2019-03-31T18:33:36.217Z,25.57
2019-03-31T18:36:06.626Z,37.33
2019-03-31T18:38:36.947Z,32.67
2019-03-31T18:41:07.476Z,43.90
2019-03-31T18:43:50.804Z,99.90
2019-03-31T18:46:08.490Z,74.97
2019-03-31T18:48:38.942Z,74.60
2019-03-31T18:51:09.106Z,43.83
2019-03-31T18:53:48.394Z,46.60
2019-03-31T18:57:21.511Z,35.87
2019-03-31T19:00:54.346Z,27.47
2019-03-31T19:04:27.907Z,63.77
2019-03-31T19:07:14.057Z,38.63
2019-03-31T19:09:50.278Z,37.53
2019-03-31T19:12:28.546Z,53.17
2019-03-31T19:16:11.503Z,55.20
2019-03-31T19:18:48.787Z,51.20
2019-03-31T19:21:23.310Z,36.57
2019-03-31T19:24:05.720Z,51.00
2019-03-31T19:26:48.146Z,48.53
2019-03-31T19:29:29.918Z,47.20
2019-03-31T19:32:05.854Z,32.47
2019-03-31T19:34:59.058Z,55.97
2019-03-31T19:37:50.291Z,34.60
2019-03-31T19:40:42.535Z,37.83
2019-03-31T19:43:19.875Z,38.13
2019-03-31T19:46:05.754Z,45.70
2019-03-31T19:48:39.809Z,44.13
2019-03-31T19:51:15.295Z,47.70
2019-03-31T19:53:53.103Z,33.57
2019-03-31T19:57:31.542Z,39.23
2019-03-31T20:00:09.203Z,24.73
2019-03-31T20:02:49.695Z,20.80
2019-03-31T20:05:31.448Z,39.90
2019-03-31T20:08:06.894Z,24.27
2019-03-31T20:10:57.636Z,24.50
2019-03-31T20:13:35.953Z,16.73
2019-03-31T20:16:13.545Z,15.30
2019-03-31T20:18:49.907Z,13.00
2019-03-31T20:21:32.231Z,14.53
2019-03-31T20:24:06.686Z,7.20
2019-03-31T20:26:46.260Z,11.80
2019-03-31T20:29:30.528Z,14.17
2019-03-31T20:32:05.102Z,12.87
2019-03-31T20:34:41.619Z,12.93
2019-03-31T20:37:18.087Z,10.23
2019-03-31T20:40:51.205Z,44.27
2019-03-31T20:43:27.650Z,14.93
2019-03-31T20:45:58.052Z,12.80
2019-03-31T20:48:28.534Z,11.63
2019-03-31T20:50:59.006Z,11.33
2019-03-31T20:53:29.527Z,15.63
2019-03-31T20:55:59.577Z,10.53
2019-03-31T20:58:29.915Z,11.87
2019-03-31T21:01:01.966Z,12.53
2019-03-31T21:03:32.392Z,11.53
2019-03-31T21:06:02.977Z,8.77
2019-03-31T21:08:33.533Z,12.67
2019-03-31T21:11:04.316Z,9.97
2019-03-31T21:13:35.516Z,7.13
2019-03-31T21:16:06.196Z,8.93
2019-03-31T21:18:36.757Z,8.70
2019-03-31T21:21:07.277Z,7.23
2019-03-31T21:23:37.785Z,9.17
2019-03-31T21:26:08.792Z,13.70
2019-03-31T21:28:39.395Z,7.53
2019-03-31T21:31:09.827Z,7.13
2019-03-31T21:33:40.658Z,12.47
2019-03-31T21:36:11.214Z,8.07
2019-03-31T21:38:41.869Z,13.67
2019-03-31T21:41:14.216Z,8.83
2019-03-31T21:43:42.828Z,5.33
2019-03-31T21:46:13.342Z,6.73
2019-03-31T21:48:44.119Z,8.97
2019-03-31T21:51:14.845Z,8.53
2019-03-31T21:53:44.676Z,8.23
2019-03-31T21:56:15.341Z,8.23
2019-03-31T21:58:45.912Z,9.20
2019-03-31T22:01:17.101Z,7.23
2019-03-31T22:03:47.627Z,6.07
2019-03-31T22:06:18.378Z,6.87
2019-03-31T22:08:48.995Z,9.83
2019-03-31T22:11:19.742Z,7.43
2019-03-31T22:13:50.082Z,11.00
2019-03-31T22:16:20.409Z,8.30
2019-03-31T22:18:50.669Z,7.53
2019-03-31T22:21:20.974Z,10.03
2019-03-31T22:23:57.925Z,7.43
2019-03-31T22:26:21.725Z,8.73
2019-03-31T22:28:52.301Z,7.57
2019-03-31T22:31:22.433Z,7.47
2019-03-31T22:33:53.229Z,7.63
2019-03-31T22:36:23.772Z,10.13
2019-03-31T22:38:54.533Z,8.87
2019-03-31T22:41:24.909Z,9.00
2019-03-31T22:43:55.373Z,9.27
2019-03-31T22:46:25.725Z,9.60
2019-03-31T22:48:56.151Z,7.93
2019-03-31T22:51:26.407Z,11.37
2019-03-31T22:53:56.788Z,12.20
2019-03-31T22:56:27.286Z,11.03
2019-03-31T22:58:57.635Z,7.23
2019-03-31T23:01:28.343Z,6.67
2019-03-31T23:03:58.832Z,9.07
2019-03-31T23:06:29.098Z,8.80
2019-03-31T23:08:59.706Z,6.73
2019-03-31T23:11:30.105Z,8.70
2019-03-31T23:14:00.602Z,7.63
2019-03-31T23:16:31.006Z,6.13
2019-03-31T23:19:01.580Z,5.43
2019-03-31T23:21:31.852Z,5.93
2019-03-31T23:24:02.724Z,8.43
2019-03-31T23:26:33.049Z,6.13
2019-03-31T23:29:03.368Z,5.03
2019-03-31T23:31:33.841Z,6.43
2019-03-31T23:34:04.358Z,6.73
2019-03-31T23:36:34.826Z,6.90
2019-03-31T23:39:06.472Z,6.10
2019-03-31T23:41:36.870Z,7.80
2019-03-31T23:44:07.568Z,5.30
2019-03-31T23:46:37.898Z,6.23
2019-03-31T23:49:08.319Z,6.07
2019-03-31T23:51:38.714Z,7.23
2019-03-31T23:54:08.533Z,6.70
2019-03-31T23:56:38.858Z,12.17
2019-03-31T23:59:09.323Z,11.77
